sensor_id;sensor_type;location;lat;lon;timestamp;P1;durP1;ratioP1;P2;durP2;ratioP2
5876;SDS011;2964;42.144;24.730;2023-07-24T00:01:51;15.65;;;13.57;;
5876;SDS011;2964;42.144;24.730;2023-07-24T00:04:18;15.25;;;13.75;;
5876;SDS011;2964;42.144;24.730;2023-07-24T00:06:46;18.50;;;12.98;;
5876;SDS011;2964;42.144;24.730;2023-07-24T00:09:13;18.80;;;13.38;;
5876;SDS011;2964;42.144;24.730;2023-07-24T00:11:39;15.52;;;11.93;;
5876;SDS011;2964;42.144;24.730;2023-07-24T00:14:06;16.63;;;11.65;;
5876;SDS011;2964;42.144;24.730;2023-07-24T00:16:33;13.18;;;11.93;;
5876;SDS011;2964;42.144;24.730;2023-07-24T00:18:59;14.35;;;12.73;;
5876;SDS011;2964;42.144;24.730;2023-07-24T00:21:26;19.23;;;13.20;;
5876;SDS011;2964;42.144;24.730;2023-07-24T00:23:54;17.80;;;12.32;;
5876;SDS011;2964;42.144;24.730;2023-07-24T00:26:20;14.73;;;13.23;;
5876;SDS011;2964;42.144;24.730;2023-07-24T00:28:47;14.85;;;12.13;;
5876;SDS011;2964;42.144;24.730;2023-07-24T00:31:14;14.98;;;13.38;;
5876;SDS011;2964;42.144;24.730;2023-07-24T00:33:41;12.80;;;11.50;;
5876;SDS011;2964;42.144;24.730;2023-07-24T00:36:07;13.18;;;11.68;;
5876;SDS011;2964;42.144;24.730;2023-07-24T00:38:34;14.60;;;12.00;;
5876;SDS011;2964;42.144;24.730;2023-07-24T00:41:02;12.23;;;11.30;;
5876;SDS011;2964;42.144;24.730;2023-07-24T00:43:29;11.98;;;11.00;;
5876;SDS011;2964;42.144;24.730;2023-07-24T00:45:56;12.48;;;10.98;;
5876;SDS011;2964;42.144;24.730;2023-07-24T00:48:23;12.85;;;11.48;;
5876;SDS011;2964;42.144;24.730;2023-07-24T00:50:50;12.32;;;11.13;;
5876;SDS011;2964;42.144;24.730;2023-07-24T00:53:17;12.48;;;11.32;;
5876;SDS011;2964;42.144;24.730;2023-07-24T00:55:45;12.02;;;10.95;;
5876;SDS011;2964;42.144;24.730;2023-07-24T00:58:14;13.20;;;11.85;;
5876;SDS011;2964;42.144;24.730;2023-07-24T01:00:43;12.55;;;11.40;;
5876;SDS011;2964;42.144;24.730;2023-07-24T01:03:09;12.88;;;11.63;;
5876;SDS011;2964;42.144;24.730;2023-07-24T01:05:37;13.63;;;11.88;;
5876;SDS011;2964;42.144;24.730;2023-07-24T01:08:05;13.90;;;11.60;;
5876;SDS011;2964;42.144;24.730;2023-07-24T01:10:32;12.80;;;11.63;;
5876;SDS011;2964;42.144;24.730;2023-07-24T01:12:59;14.63;;;11.53;;
5876;SDS011;2964;42.144;24.730;2023-07-24T01:15:32;13.53;;;12.17;;
5876;SDS011;2964;42.144;24.730;2023-07-24T01:18:03;13.17;;;11.97;;
5876;SDS011;2964;42.144;24.730;2023-07-24T01:20:34;13.20;;;11.97;;
5876;SDS011;2964;42.144;24.730;2023-07-24T01:23:08;12.30;;;11.27;;
5876;SDS011;2964;42.144;24.730;2023-07-24T01:25:57;12.33;;;11.33;;
5876;SDS011;2964;42.144;24.730;2023-07-24T01:28:25;12.87;;;11.70;;
5876;SDS011;2964;42.144;24.730;2023-07-24T01:30:52;12.82;;;11.45;;
5876;SDS011;2964;42.144;24.730;2023-07-24T01:33:20;12.30;;;11.50;;
5876;SDS011;2964;42.144;24.730;2023-07-24T01:35:48;13.43;;;12.10;;
5876;SDS011;2964;42.144;24.730;2023-07-24T01:38:17;13.10;;;11.90;;
5876;SDS011;2964;42.144;24.730;2023-07-24T01:40:43;13.43;;;11.90;;
5876;SDS011;2964;42.144;24.730;2023-07-24T01:43:12;13.10;;;12.00;;
5876;SDS011;2964;42.144;24.730;2023-07-24T01:45:39;12.97;;;11.50;;
5876;SDS011;2964;42.144;24.730;2023-07-24T01:48:06;16.17;;;12.83;;
5876;SDS011;2964;42.144;24.730;2023-07-24T01:50:33;14.07;;;11.73;;
5876;SDS011;2964;42.144;24.730;2023-07-24T01:52:59;13.90;;;12.63;;
5876;SDS011;2964;42.144;24.730;2023-07-24T01:55:26;15.43;;;13.97;;
5876;SDS011;2964;42.144;24.730;2023-07-24T01:57:53;17.13;;;13.33;;
5876;SDS011;2964;42.144;24.730;2023-07-24T02:00:21;16.13;;;14.50;;
5876;SDS011;2964;42.144;24.730;2023-07-24T02:02:47;17.93;;;14.83;;
5876;SDS011;2964;42.144;24.730;2023-07-24T02:05:14;17.20;;;15.60;;
5876;SDS011;2964;42.144;24.730;2023-07-24T02:07:41;15.87;;;14.57;;
5876;SDS011;2964;42.144;24.730;2023-07-24T02:10:08;17.87;;;16.00;;
5876;SDS011;2964;42.144;24.730;2023-07-24T02:12:35;16.77;;;14.97;;
5876;SDS011;2964;42.144;24.730;2023-07-24T02:15:02;18.57;;;14.93;;
5876;SDS011;2964;42.144;24.730;2023-07-24T02:17:30;19.30;;;15.70;;
5876;SDS011;2964;42.144;24.730;2023-07-24T02:19:57;21.50;;;15.23;;
5876;SDS011;2964;42.144;24.730;2023-07-24T02:22:23;16.27;;;14.67;;
5876;SDS011;2964;42.144;24.730;2023-07-24T02:24:50;19.87;;;16.57;;
5876;SDS011;2964;42.144;24.730;2023-07-24T02:27:24;21.27;;;17.40;;
5876;SDS011;2964;42.144;24.730;2023-07-24T02:29:52;19.37;;;17.33;;
5876;SDS011;2964;42.144;24.730;2023-07-24T02:32:19;22.40;;;18.23;;
5876;SDS011;2964;42.144;24.730;2023-07-24T02:34:48;25.73;;;20.60;;
5876;SDS011;2964;42.144;24.730;2023-07-24T02:37:15;29.43;;;22.27;;
5876;SDS011;2964;42.144;24.730;2023-07-24T02:39:42;32.93;;;20.83;;
5876;SDS011;2964;42.144;24.730;2023-07-24T02:42:08;34.57;;;22.90;;
5876;SDS011;2964;42.144;24.730;2023-07-24T02:44:35;28.67;;;22.90;;
5876;SDS011;2964;42.144;24.730;2023-07-24T02:47:02;33.93;;;22.07;;
5876;SDS011;2964;42.144;24.730;2023-07-24T02:49:29;26.13;;;21.00;;
5876;SDS011;2964;42.144;24.730;2023-07-24T02:51:57;31.73;;;21.80;;
5876;SDS011;2964;42.144;24.730;2023-07-24T02:54:25;31.33;;;23.07;;
5876;SDS011;2964;42.144;24.730;2023-07-24T02:56:51;30.70;;;22.20;;
5876;SDS011;2964;42.144;24.730;2023-07-24T02:59:18;37.03;;;24.47;;
5876;SDS011;2964;42.144;24.730;2023-07-24T03:01:45;36.47;;;24.03;;
5876;SDS011;2964;42.144;24.730;2023-07-24T03:04:11;40.40;;;23.17;;
5876;SDS011;2964;42.144;24.730;2023-07-24T03:06:38;29.27;;;22.03;;
5876;SDS011;2964;42.144;24.730;2023-07-24T03:09:06;37.30;;;24.27;;
5876;SDS011;2964;42.144;24.730;2023-07-24T03:11:33;38.17;;;22.17;;
5876;SDS011;2964;42.144;24.730;2023-07-24T03:14:00;30.63;;;22.10;;
5876;SDS011;2964;42.144;24.730;2023-07-24T03:16:26;32.47;;;23.13;;
5876;SDS011;2964;42.144;24.730;2023-07-24T03:18:53;33.27;;;24.23;;
5876;SDS011;2964;42.144;24.730;2023-07-24T03:21:20;38.93;;;24.57;;
5876;SDS011;2964;42.144;24.730;2023-07-24T03:23:47;34.70;;;22.90;;
5876;SDS011;2964;42.144;24.730;2023-07-24T03:26:15;34.67;;;25.03;;
5876;SDS011;2964;42.144;24.730;2023-07-24T03:28:41;37.67;;;24.47;;
5876;SDS011;2964;42.144;24.730;2023-07-24T03:31:08;34.70;;;26.40;;
5876;SDS011;2964;42.144;24.730;2023-07-24T03:33:35;39.40;;;26.13;;
5876;SDS011;2964;42.144;24.730;2023-07-24T03:36:01;33.77;;;24.13;;
5876;SDS011;2964;42.144;24.730;2023-07-24T03:38:28;37.77;;;24.73;;
5876;SDS011;2964;42.144;24.730;2023-07-24T03:40:55;37.13;;;24.77;;
5876;SDS011;2964;42.144;24.730;2023-07-24T03:43:23;38.53;;;26.43;;
5876;SDS011;2964;42.144;24.730;2023-07-24T03:45:49;39.57;;;26.00;;
5876;SDS011;2964;42.144;24.730;2023-07-24T03:48:16;38.40;;;24.53;;
5876;SDS011;2964;42.144;24.730;2023-07-24T03:50:43;40.33;;;26.57;;
5876;SDS011;2964;42.144;24.730;2023-07-24T03:53:09;41.40;;;25.83;;
5876;SDS011;2964;42.144;24.730;2023-07-24T03:55:36;42.33;;;25.20;;
5876;SDS011;2964;42.144;24.730;2023-07-24T03:58:03;36.60;;;25.13;;
5876;SDS011;2964;42.144;24.730;2023-07-24T04:00:31;37.47;;;25.77;;
5876;SDS011;2964;42.144;24.730;2023-07-24T04:02:57;39.83;;;27.67;;
5876;SDS011;2964;42.144;24.730;2023-07-24T04:05:24;32.97;;;25.10;;
5876;SDS011;2964;42.144;24.730;2023-07-24T04:07:51;37.03;;;25.57;;
5876;SDS011;2964;42.144;24.730;2023-07-24T04:10:18;38.20;;;27.07;;
5876;SDS011;2964;42.144;24.730;2023-07-24T04:12:44;34.97;;;26.30;;
5876;SDS011;2964;42.144;24.730;2023-07-24T04:15:11;36.60;;;25.87;;
5876;SDS011;2964;42.144;24.730;2023-07-24T04:17:39;38.73;;;26.20;;
5876;SDS011;2964;42.144;24.730;2023-07-24T04:20:07;37.63;;;25.73;;
5876;SDS011;2964;42.144;24.730;2023-07-24T04:22:34;34.37;;;25.40;;
5876;SDS011;2964;42.144;24.730;2023-07-24T04:25:01;38.03;;;25.83;;
5876;SDS011;2964;42.144;24.730;2023-07-24T04:27:28;34.00;;;25.40;;
5876;SDS011;2964;42.144;24.730;2023-07-24T04:29:55;36.33;;;26.43;;
5876;SDS011;2964;42.144;24.730;2023-07-24T04:32:21;32.53;;;25.67;;
5876;SDS011;2964;42.144;24.730;2023-07-24T04:34:49;33.27;;;25.47;;
5876;SDS011;2964;42.144;24.730;2023-07-24T04:37:16;36.80;;;26.50;;
5876;SDS011;2964;42.144;24.730;2023-07-24T04:39:43;30.90;;;25.13;;
5876;SDS011;2964;42.144;24.730;2023-07-24T04:42:09;34.93;;;24.30;;
5876;SDS011;2964;42.144;24.730;2023-07-24T04:44:39;33.05;;;26.25;;
5876;SDS011;2964;42.144;24.730;2023-07-24T04:47:06;26.27;;;20.63;;
5876;SDS011;2964;42.144;24.730;2023-07-24T04:49:32;26.45;;;19.92;;
5876;SDS011;2964;42.144;24.730;2023-07-24T04:52:01;34.72;;;19.75;;
5876;SDS011;2964;42.144;24.730;2023-07-24T04:54:28;25.05;;;18.63;;
5876;SDS011;2964;42.144;24.730;2023-07-24T04:56:55;29.13;;;19.10;;
5876;SDS011;2964;42.144;24.730;2023-07-24T04:59:23;22.80;;;18.60;;
5876;SDS011;2964;42.144;24.730;2023-07-24T05:01:50;28.50;;;19.08;;
5876;SDS011;2964;42.144;24.730;2023-07-24T05:04:16;29.42;;;19.35;;
5876;SDS011;2964;42.144;24.730;2023-07-24T05:06:43;23.58;;;18.90;;
5876;SDS011;2964;42.144;24.730;2023-07-24T05:09:11;23.17;;;18.77;;
5876;SDS011;2964;42.144;24.730;2023-07-24T05:11:39;20.33;;;17.83;;
5876;SDS011;2964;42.144;24.730;2023-07-24T05:14:07;25.52;;;17.17;;
5876;SDS011;2964;42.144;24.730;2023-07-24T05:16:33;21.40;;;18.25;;
5876;SDS011;2964;42.144;24.730;2023-07-24T05:19:00;25.83;;;19.15;;
5876;SDS011;2964;42.144;24.730;2023-07-24T05:21:27;34.75;;;19.60;;
5876;SDS011;2964;42.144;24.730;2023-07-24T05:23:53;21.45;;;18.38;;
5876;SDS011;2964;42.144;24.730;2023-07-24T05:26:21;22.30;;;18.30;;
5876;SDS011;2964;42.144;24.730;2023-07-24T05:28:48;28.15;;;20.02;;
5876;SDS011;2964;42.144;24.730;2023-07-24T05:31:15;31.38;;;20.42;;
5876;SDS011;2964;42.144;24.730;2023-07-24T05:33:41;26.02;;;20.63;;
5876;SDS011;2964;42.144;24.730;2023-07-24T05:36:08;29.50;;;20.98;;
5876;SDS011;2964;42.144;24.730;2023-07-24T05:38:35;29.55;;;21.52;;
5876;SDS011;2964;42.144;24.730;2023-07-24T05:41:02;28.23;;;22.10;;
5876;SDS011;2964;42.144;24.730;2023-07-24T05:43:30;33.42;;;22.40;;
5876;SDS011;2964;42.144;24.730;2023-07-24T05:45:57;24.52;;;20.42;;
5876;SDS011;2964;42.144;24.730;2023-07-24T05:48:25;27.80;;;22.63;;
5876;SDS011;2964;42.144;24.730;2023-07-24T05:50:52;27.77;;;19.75;;
5876;SDS011;2964;42.144;24.730;2023-07-24T05:53:18;24.23;;;21.63;;
5876;SDS011;2964;42.144;24.730;2023-07-24T05:55:45;23.30;;;20.85;;
5876;SDS011;2964;42.144;24.730;2023-07-24T05:58:12;26.33;;;21.23;;
5876;SDS011;2964;42.144;24.730;2023-07-24T06:00:40;27.67;;;20.85;;
5876;SDS011;2964;42.144;24.730;2023-07-24T06:03:07;27.55;;;21.10;;
5876;SDS011;2964;42.144;24.730;2023-07-24T06:05:33;25.88;;;22.85;;
5876;SDS011;2964;42.144;24.730;2023-07-24T06:08:00;22.92;;;20.17;;
5876;SDS011;2964;42.144;24.730;2023-07-24T06:10:27;26.67;;;21.88;;
5876;SDS011;2964;42.144;24.730;2023-07-24T06:12:53;22.17;;;19.85;;
5876;SDS011;2964;42.144;24.730;2023-07-24T06:15:20;28.70;;;21.25;;
5876;SDS011;2964;42.144;24.730;2023-07-24T06:17:48;22.45;;;20.02;;
5876;SDS011;2964;42.144;24.730;2023-07-24T06:20:15;22.80;;;20.40;;
5876;SDS011;2964;42.144;24.730;2023-07-24T06:22:42;25.55;;;22.45;;
5876;SDS011;2964;42.144;24.730;2023-07-24T06:25:08;27.08;;;20.67;;
5876;SDS011;2964;42.144;24.730;2023-07-24T06:27:35;29.80;;;20.42;;
5876;SDS011;2964;42.144;24.730;2023-07-24T06:30:03;22.65;;;18.23;;
5876;SDS011;2964;42.144;24.730;2023-07-24T06:32:30;22.52;;;18.45;;
5876;SDS011;2964;42.144;24.730;2023-07-24T06:34:59;23.63;;;19.67;;
5876;SDS011;2964;42.144;24.730;2023-07-24T06:37:26;21.70;;;19.42;;
5876;SDS011;2964;42.144;24.730;2023-07-24T06:39:53;26.13;;;19.63;;
5876;SDS011;2964;42.144;24.730;2023-07-24T06:42:19;22.98;;;18.73;;
5876;SDS011;2964;42.144;24.730;2023-07-24T06:44:46;24.20;;;19.70;;
5876;SDS011;2964;42.144;24.730;2023-07-24T06:47:13;23.27;;;20.75;;
5876;SDS011;2964;42.144;24.730;2023-07-24T06:49:39;21.42;;;19.20;;
5876;SDS011;2964;42.144;24.730;2023-07-24T06:52:08;21.98;;;19.10;;
5876;SDS011;2964;42.144;24.730;2023-07-24T06:54:34;20.98;;;18.80;;
5876;SDS011;2964;42.144;24.730;2023-07-24T06:57:01;21.70;;;19.58;;
5876;SDS011;2964;42.144;24.730;2023-07-24T06:59:28;24.10;;;19.38;;
5876;SDS011;2964;42.144;24.730;2023-07-24T07:01:54;21.35;;;18.88;;
5876;SDS011;2964;42.144;24.730;2023-07-24T07:04:21;21.00;;;18.90;;
5876;SDS011;2964;42.144;24.730;2023-07-24T07:06:48;23.67;;;18.48;;
5876;SDS011;2964;42.144;24.730;2023-07-24T07:09:16;22.27;;;19.98;;
5876;SDS011;2964;42.144;24.730;2023-07-24T07:11:43;21.17;;;18.98;;
5876;SDS011;2964;42.144;24.730;2023-07-24T07:14:10;20.15;;;18.05;;
5876;SDS011;2964;42.144;24.730;2023-07-24T07:16:37;21.95;;;19.50;;
5876;SDS011;2964;42.144;24.730;2023-07-24T07:19:04;21.15;;;19.15;;
5876;SDS011;2964;42.144;24.730;2023-07-24T07:21:31;23.17;;;17.45;;
5876;SDS011;2964;42.144;24.730;2023-07-24T07:23:57;20.90;;;18.83;;
5876;SDS011;2964;42.144;24.730;2023-07-24T07:26:25;21.95;;;19.45;;
5876;SDS011;2964;42.144;24.730;2023-07-24T07:28:54;22.10;;;19.60;;
5876;SDS011;2964;42.144;24.730;2023-07-24T07:31:21;27.10;;;21.27;;
5876;SDS011;2964;42.144;24.730;2023-07-24T07:33:47;22.80;;;20.60;;
5876;SDS011;2964;42.144;24.730;2023-07-24T07:36:14;23.20;;;18.95;;
5876;SDS011;2964;42.144;24.730;2023-07-24T07:38:41;22.23;;;20.02;;
5876;SDS011;2964;42.144;24.730;2023-07-24T07:41:07;22.10;;;19.85;;
5876;SDS011;2964;42.144;24.730;2023-07-24T07:43:35;22.38;;;20.27;;
5876;SDS011;2964;42.144;24.730;2023-07-24T07:46:03;26.92;;;19.75;;
5876;SDS011;2964;42.144;24.730;2023-07-24T07:48:29;22.45;;;20.27;;
5876;SDS011;2964;42.144;24.730;2023-07-24T07:50:57;23.75;;;21.38;;
5876;SDS011;2964;42.144;24.730;2023-07-24T07:53:24;27.17;;;21.45;;
5876;SDS011;2964;42.144;24.730;2023-07-24T07:55:56;23.13;;;20.75;;
5876;SDS011;2964;42.144;24.730;2023-07-24T07:58:24;23.20;;;20.90;;
5876;SDS011;2964;42.144;24.730;2023-07-24T08:00:52;23.52;;;19.25;;
5876;SDS011;2964;42.144;24.730;2023-07-24T08:03:19;23.25;;;20.08;;
5876;SDS011;2964;42.144;24.730;2023-07-24T08:05:46;23.42;;;18.85;;
5876;SDS011;2964;42.144;24.730;2023-07-24T08:08:13;22.02;;;19.60;;
5876;SDS011;2964;42.144;24.730;2023-07-24T08:10:40;21.25;;;18.90;;
5876;SDS011;2964;42.144;24.730;2023-07-24T08:13:06;23.90;;;18.67;;
5876;SDS011;2964;42.144;24.730;2023-07-24T08:15:34;27.00;;;21.63;;
5876;SDS011;2964;42.144;24.730;2023-07-24T08:18:03;37.70;;;21.65;;
5876;SDS011;2964;42.144;24.730;2023-07-24T08:20:30;23.40;;;20.30;;
5876;SDS011;2964;42.144;24.730;2023-07-24T08:22:57;22.55;;;20.40;;
5876;SDS011;2964;42.144;24.730;2023-07-24T08:25:24;20.65;;;18.50;;
5876;SDS011;2964;42.144;24.730;2023-07-24T08:27:50;21.40;;;19.13;;
5876;SDS011;2964;42.144;24.730;2023-07-24T08:30:17;20.48;;;18.38;;
5876;SDS011;2964;42.144;24.730;2023-07-24T08:32:44;20.55;;;18.45;;
5876;SDS011;2964;42.144;24.730;2023-07-24T08:35:12;20.67;;;18.30;;
5876;SDS011;2964;42.144;24.730;2023-07-24T08:37:42;23.75;;;19.88;;
5876;SDS011;2964;42.144;24.730;2023-07-24T08:40:09;20.00;;;18.15;;
5876;SDS011;2964;42.144;24.730;2023-07-24T08:42:37;22.55;;;19.92;;
5876;SDS011;2964;42.144;24.730;2023-07-24T08:45:07;20.08;;;17.65;;
5876;SDS011;2964;42.144;24.730;2023-07-24T08:47:37;18.65;;;16.90;;
5876;SDS011;2964;42.144;24.730;2023-07-24T08:50:06;19.08;;;17.20;;
5876;SDS011;2964;42.144;24.730;2023-07-24T08:52:37;21.75;;;18.15;;
5876;SDS011;2964;42.144;24.730;2023-07-24T08:55:04;21.50;;;18.85;;
5876;SDS011;2964;42.144;24.730;2023-07-24T08:57:32;22.77;;;20.83;;
5876;SDS011;2964;42.144;24.730;2023-07-24T08:59:59;23.83;;;21.27;;
5876;SDS011;2964;42.144;24.730;2023-07-24T09:02:29;26.83;;;21.80;;
5876;SDS011;2964;42.144;24.730;2023-07-24T09:04:56;22.50;;;18.48;;
5876;SDS011;2964;42.144;24.730;2023-07-24T09:07:23;19.85;;;18.00;;
5876;SDS011;2964;42.144;24.730;2023-07-24T09:09:51;20.63;;;18.55;;
5876;SDS011;2964;42.144;24.730;2023-07-24T09:12:18;21.27;;;19.42;;
5876;SDS011;2964;42.144;24.730;2023-07-24T09:14:44;21.48;;;19.42;;
5876;SDS011;2964;42.144;24.730;2023-07-24T09:17:11;21.95;;;19.70;;
5876;SDS011;2964;42.144;24.730;2023-07-24T09:19:38;22.17;;;20.02;;
5876;SDS011;2964;42.144;24.730;2023-07-24T09:22:08;21.23;;;19.17;;
5876;SDS011;2964;42.144;24.730;2023-07-24T09:24:35;22.63;;;20.30;;
5876;SDS011;2964;42.144;24.730;2023-07-24T09:27:05;21.52;;;19.52;;
5876;SDS011;2964;42.144;24.730;2023-07-24T09:29:33;21.73;;;19.88;;
5876;SDS011;2964;42.144;24.730;2023-07-24T09:32:00;20.05;;;18.25;;
5876;SDS011;2964;42.144;24.730;2023-07-24T09:34:31;20.23;;;18.13;;
5876;SDS011;2964;42.144;24.730;2023-07-24T09:36:58;21.23;;;19.15;;
5876;SDS011;2964;42.144;24.730;2023-07-24T09:39:24;20.65;;;18.60;;
5876;SDS011;2964;42.144;24.730;2023-07-24T09:41:51;21.90;;;19.95;;
5876;SDS011;2964;42.144;24.730;2023-07-24T09:44:21;19.48;;;17.67;;
5876;SDS011;2964;42.144;24.730;2023-07-24T09:46:51;19.85;;;17.83;;
5876;SDS011;2964;42.144;24.730;2023-07-24T09:49:18;18.90;;;16.95;;
5876;SDS011;2964;42.144;24.730;2023-07-24T09:51:45;18.42;;;16.05;;
5876;SDS011;2964;42.144;24.730;2023-07-24T09:54:19;19.65;;;17.90;;
5876;SDS011;2964;42.144;24.730;2023-07-24T09:56:51;20.17;;;18.38;;
5876;SDS011;2964;42.144;24.730;2023-07-24T09:59:21;19.50;;;17.52;;
5876;SDS011;2964;42.144;24.730;2023-07-24T10:01:49;20.77;;;17.73;;
5876;SDS011;2964;42.144;24.730;2023-07-24T10:04:17;19.13;;;17.42;;
5876;SDS011;2964;42.144;24.730;2023-07-24T10:06:44;17.08;;;15.65;;
5876;SDS011;2964;42.144;24.730;2023-07-24T10:09:12;18.63;;;16.58;;
5876;SDS011;2964;42.144;24.730;2023-07-24T10:11:39;23.05;;;18.02;;
5876;SDS011;2964;42.144;24.730;2023-07-24T10:14:06;18.20;;;16.60;;
5876;SDS011;2964;42.144;24.730;2023-07-24T10:16:34;25.10;;;16.63;;
5876;SDS011;2964;42.144;24.730;2023-07-24T10:19:01;18.80;;;17.05;;
5876;SDS011;2964;42.144;24.730;2023-07-24T10:21:27;19.58;;;17.65;;
5876;SDS011;2964;42.144;24.730;2023-07-24T10:23:54;18.63;;;16.65;;
5876;SDS011;2964;42.144;24.730;2023-07-24T10:26:26;22.70;;;17.38;;
5876;SDS011;2964;42.144;24.730;2023-07-24T10:28:53;17.77;;;15.25;;
5876;SDS011;2964;42.144;24.730;2023-07-24T10:31:20;18.67;;;16.77;;
5876;SDS011;2964;42.144;24.730;2023-07-24T10:33:50;18.52;;;16.35;;
5876;SDS011;2964;42.144;24.730;2023-07-24T10:36:17;22.23;;;19.92;;
5876;SDS011;2964;42.144;24.730;2023-07-24T10:38:45;19.85;;;17.88;;
5876;SDS011;2964;42.144;24.730;2023-07-24T10:41:13;19.45;;;17.27;;
5876;SDS011;2964;42.144;24.730;2023-07-24T10:43:40;18.80;;;16.98;;
5876;SDS011;2964;42.144;24.730;2023-07-24T10:46:08;18.83;;;16.70;;
5876;SDS011;2964;42.144;24.730;2023-07-24T10:48:35;19.20;;;17.25;;
5876;SDS011;2964;42.144;24.730;2023-07-24T10:51:07;18.75;;;16.85;;
5876;SDS011;2964;42.144;24.730;2023-07-24T10:53:35;18.83;;;16.77;;
5876;SDS011;2964;42.144;24.730;2023-07-24T10:56:03;18.95;;;17.05;;
5876;SDS011;2964;42.144;24.730;2023-07-24T10:58:30;19.20;;;17.27;;
5876;SDS011;2964;42.144;24.730;2023-07-24T11:00:57;18.80;;;16.88;;
5876;SDS011;2964;42.144;24.730;2023-07-24T11:03:25;20.38;;;18.38;;
5876;SDS011;2964;42.144;24.730;2023-07-24T11:05:52;20.08;;;17.30;;
5876;SDS011;2964;42.144;24.730;2023-07-24T11:08:20;18.85;;;17.05;;
5876;SDS011;2964;42.144;24.730;2023-07-24T11:10:47;18.10;;;16.30;;
5876;SDS011;2964;42.144;24.730;2023-07-24T11:13:15;18.13;;;16.38;;
5876;SDS011;2964;42.144;24.730;2023-07-24T11:15:41;21.67;;;19.42;;
5876;SDS011;2964;42.144;24.730;2023-07-24T11:18:08;20.35;;;18.20;;
5876;SDS011;2964;42.144;24.730;2023-07-24T11:20:36;18.98;;;17.38;;
5876;SDS011;2964;42.144;24.730;2023-07-24T11:23:04;19.30;;;17.48;;
5876;SDS011;2964;42.144;24.730;2023-07-24T11:25:32;18.25;;;16.52;;
5876;SDS011;2964;42.144;24.730;2023-07-24T11:27:59;20.90;;;18.92;;
5876;SDS011;2964;42.144;24.730;2023-07-24T11:30:26;19.05;;;17.15;;
5876;SDS011;2964;42.144;24.730;2023-07-24T11:32:52;21.08;;;19.00;;
5876;SDS011;2964;42.144;24.730;2023-07-24T11:35:20;21.50;;;19.40;;
5876;SDS011;2964;42.144;24.730;2023-07-24T11:37:47;22.00;;;19.88;;
5876;SDS011;2964;42.144;24.730;2023-07-24T11:40:14;19.52;;;17.52;;
5876;SDS011;2964;42.144;24.730;2023-07-24T11:42:43;20.30;;;18.45;;
5876;SDS011;2964;42.144;24.730;2023-07-24T11:45:13;21.55;;;19.30;;
5876;SDS011;2964;42.144;24.730;2023-07-24T11:47:41;20.70;;;18.08;;
5876;SDS011;2964;42.144;24.730;2023-07-24T11:50:08;19.48;;;17.83;;
5876;SDS011;2964;42.144;24.730;2023-07-24T11:52:39;19.83;;;17.92;;
5876;SDS011;2964;42.144;24.730;2023-07-24T11:55:08;20.58;;;18.77;;
5876;SDS011;2964;42.144;24.730;2023-07-24T11:57:35;20.13;;;18.00;;
5876;SDS011;2964;42.144;24.730;2023-07-24T12:00:04;18.88;;;16.90;;
5876;SDS011;2964;42.144;24.730;2023-07-24T12:02:32;22.05;;;17.23;;
5876;SDS011;2964;42.144;24.730;2023-07-24T12:04:59;20.35;;;18.17;;
5876;SDS011;2964;42.144;24.730;2023-07-24T12:07:31;20.25;;;17.80;;
5876;SDS011;2964;42.144;24.730;2023-07-24T12:09:59;21.10;;;19.13;;
5876;SDS011;2964;42.144;24.730;2023-07-24T12:12:36;20.88;;;18.70;;
5876;SDS011;2964;42.144;24.730;2023-07-24T12:15:05;17.83;;;16.02;;
5876;SDS011;2964;42.144;24.730;2023-07-24T12:17:33;19.67;;;17.65;;
5876;SDS011;2964;42.144;24.730;2023-07-24T12:20:00;18.73;;;16.77;;
5876;SDS011;2964;42.144;24.730;2023-07-24T12:22:27;19.67;;;17.98;;
5876;SDS011;2964;42.144;24.730;2023-07-24T12:24:54;19.65;;;17.48;;
5876;SDS011;2964;42.144;24.730;2023-07-24T12:27:20;18.08;;;16.25;;
5876;SDS011;2964;42.144;24.730;2023-07-24T12:29:47;20.00;;;17.90;;
5876;SDS011;2964;42.144;24.730;2023-07-24T12:32:15;17.88;;;16.17;;
5876;SDS011;2964;42.144;24.730;2023-07-24T12:34:42;17.73;;;16.17;;
5876;SDS011;2964;42.144;24.730;2023-07-24T12:37:08;26.17;;;17.30;;
5876;SDS011;2964;42.144;24.730;2023-07-24T12:39:35;17.45;;;15.63;;
5876;SDS011;2964;42.144;24.730;2023-07-24T12:42:02;18.10;;;16.27;;
5876;SDS011;2964;42.144;24.730;2023-07-24T12:44:29;17.92;;;16.02;;
5876;SDS011;2964;42.144;24.730;2023-07-24T12:46:56;18.88;;;16.98;;
5876;SDS011;2964;42.144;24.730;2023-07-24T12:49:24;17.33;;;15.63;;
5876;SDS011;2964;42.144;24.730;2023-07-24T12:51:50;18.00;;;16.35;;
5876;SDS011;2964;42.144;24.730;2023-07-24T12:54:17;19.52;;;17.17;;
5876;SDS011;2964;42.144;24.730;2023-07-24T12:56:45;18.33;;;16.58;;
5876;SDS011;2964;42.144;24.730;2023-07-24T12:59:11;17.83;;;16.20;;
5876;SDS011;2964;42.144;24.730;2023-07-24T13:01:38;18.70;;;15.65;;
5876;SDS011;2964;42.144;24.730;2023-07-24T13:04:05;16.92;;;15.23;;
5876;SDS011;2964;42.144;24.730;2023-07-24T13:06:33;17.30;;;15.77;;
5876;SDS011;2964;42.144;24.730;2023-07-24T13:08:59;17.33;;;15.50;;
5876;SDS011;2964;42.144;24.730;2023-07-24T13:11:26;17.25;;;15.50;;
5876;SDS011;2964;42.144;24.730;2023-07-24T13:13:53;16.25;;;14.63;;
5876;SDS011;2964;42.144;24.730;2023-07-24T13:16:20;17.35;;;15.10;;
5876;SDS011;2964;42.144;24.730;2023-07-24T13:18:47;17.20;;;15.63;;
5876;SDS011;2964;42.144;24.730;2023-07-24T13:21:14;24.40;;;14.32;;
5876;SDS011;2964;42.144;24.730;2023-07-24T13:23:42;18.73;;;14.20;;
5876;SDS011;2964;42.144;24.730;2023-07-24T13:26:09;17.20;;;15.50;;
5876;SDS011;2964;42.144;24.730;2023-07-24T13:28:37;16.17;;;14.50;;
5876;SDS011;2964;42.144;24.730;2023-07-24T13:31:11;15.10;;;13.93;;
5876;SDS011;2964;42.144;24.730;2023-07-24T13:33:39;16.48;;;15.18;;
5876;SDS011;2964;42.144;24.730;2023-07-24T13:36:06;15.88;;;14.30;;
5876;SDS011;2964;42.144;24.730;2023-07-24T13:38:32;15.65;;;14.15;;
5876;SDS011;2964;42.144;24.730;2023-07-24T13:41:01;15.73;;;14.32;;
5876;SDS011;2964;42.144;24.730;2023-07-24T13:43:29;14.82;;;13.52;;
5876;SDS011;2964;42.144;24.730;2023-07-24T13:45:57;15.95;;;14.35;;
5876;SDS011;2964;42.144;24.730;2023-07-24T13:48:23;16.23;;;14.73;;
5876;SDS011;2964;42.144;24.730;2023-07-24T13:50:50;16.05;;;14.48;;
5876;SDS011;2964;42.144;24.730;2023-07-24T13:53:17;16.67;;;15.07;;
5876;SDS011;2964;42.144;24.730;2023-07-24T13:55:43;15.57;;;14.15;;
5876;SDS011;2964;42.144;24.730;2023-07-24T13:58:11;15.68;;;13.80;;
5876;SDS011;2964;42.144;24.730;2023-07-24T14:00:38;16.92;;;15.23;;
5876;SDS011;2964;42.144;24.730;2023-07-24T14:03:05;15.52;;;14.00;;
5876;SDS011;2964;42.144;24.730;2023-07-24T14:05:32;15.45;;;14.00;;
5876;SDS011;2964;42.144;24.730;2023-07-24T14:07:59;16.70;;;14.98;;
5876;SDS011;2964;42.144;24.730;2023-07-24T14:10:26;16.10;;;14.57;;
5876;SDS011;2964;42.144;24.730;2023-07-24T14:12:53;15.95;;;14.05;;
5876;SDS011;2964;42.144;24.730;2023-07-24T14:15:21;16.73;;;15.23;;
5876;SDS011;2964;42.144;24.730;2023-07-24T14:17:47;16.80;;;14.50;;
5876;SDS011;2964;42.144;24.730;2023-07-24T14:20:14;17.30;;;14.50;;
5876;SDS011;2964;42.144;24.730;2023-07-24T14:22:41;16.27;;;14.38;;
5876;SDS011;2964;42.144;24.730;2023-07-24T14:25:08;16.42;;;14.90;;
5876;SDS011;2964;42.144;24.730;2023-07-24T14:27:34;15.68;;;14.30;;
5876;SDS011;2964;42.144;24.730;2023-07-24T14:30:01;16.08;;;14.50;;
5876;SDS011;2964;42.144;24.730;2023-07-24T14:32:29;15.68;;;14.27;;
5876;SDS011;2964;42.144;24.730;2023-07-24T14:34:56;14.68;;;13.38;;